createdAt,value
2019-01-02T00:01:11.858Z,89.90
2019-01-02T00:11:15.659Z,90.00
2019-01-02T00:21:19.610Z,90.10
2019-01-02T00:31:23.262Z,89.80
2019-01-02T00:41:26.834Z,89.60
2019-01-02T00:51:30.423Z,89.90
2019-01-02T01:01:34.376Z,90.00
2019-01-02T01:11:38.418Z,89.80
2019-01-02T01:21:42.374Z,89.20
2019-01-02T01:31:46.402Z,89.10
2019-01-02T01:41:50.027Z,88.80
2019-01-02T01:51:53.627Z,88.50
2019-01-02T02:01:57.202Z,88.20
2019-01-02T02:12:00.853Z,87.90
2019-01-02T02:22:04.715Z,87.80
2019-01-02T02:32:08.282Z,87.80
2019-01-02T02:42:11.855Z,87.60
2019-01-02T02:52:15.811Z,87.40
2019-01-02T03:02:19.377Z,87.30
2019-01-02T03:12:22.950Z,86.90
2019-01-02T03:22:26.513Z,86.90
2019-01-02T03:32:31.351Z,86.90
2019-01-02T03:42:35.308Z,86.90
2019-01-02T03:52:38.882Z,86.80
2019-01-02T04:02:42.514Z,86.80
2019-01-02T04:12:46.091Z,87.00
2019-01-02T04:22:49.674Z,87.20
2019-01-02T04:32:53.256Z,87.10
2019-01-02T04:42:56.823Z,86.90
2019-01-02T04:53:00.429Z,86.90
2019-01-02T05:03:03.998Z,86.50
2019-01-02T05:13:07.581Z,86.40
2019-01-02T05:23:11.161Z,85.90
2019-01-02T05:33:14.723Z,86.10
2019-01-02T05:43:18.294Z,85.60
2019-01-02T05:53:21.878Z,85.30
2019-01-02T06:03:25.453Z,84.60
2019-01-02T06:13:29.035Z,84.20
2019-01-02T06:23:32.621Z,83.70
2019-01-02T06:33:36.203Z,83.30
2019-01-02T06:43:39.771Z,83.10
2019-01-02T06:53:43.366Z,82.60
2019-01-02T07:03:46.931Z,82.30
2019-01-02T07:13:50.512Z,82.80
2019-01-02T07:23:54.085Z,82.50
2019-01-02T07:34:25.230Z,82.10
2019-01-02T07:45:13.158Z,81.60
2019-01-02T07:56:05.862Z,81.40
2019-01-02T08:06:42.941Z,81.00
2019-01-02T08:17:08.990Z,81.00
2019-01-02T08:27:58.999Z,81.60
2019-01-02T08:38:40.475Z,81.50
2019-01-02T08:49:20.369Z,80.40
2019-01-02T08:59:52.178Z,79.90
2019-01-02T09:10:23.334Z,79.80
2019-01-02T09:20:55.391Z,79.60
2019-01-02T09:31:42.642Z,79.10
2019-01-02T09:41:59.631Z,79.80
2019-01-02T09:52:27.639Z,77.30
2019-01-02T10:03:06.621Z,78.30
2019-01-02T10:13:41.294Z,78.10
2019-01-02T10:24:17.802Z,78.10
2019-01-02T10:34:41.846Z,76.40
2019-01-02T10:45:54.341Z,76.00
2019-01-02T10:56:35.219Z,75.10
2019-01-02T11:07:05.347Z,74.40
2019-01-02T11:17:55.589Z,74.00
2019-01-02T11:28:36.460Z,73.70
2019-01-02T11:39:13.105Z,74.10
2019-01-02T11:49:16.706Z,72.60
2019-01-02T11:59:20.282Z,72.40
2019-01-02T12:09:23.851Z,71.80
2019-01-02T12:19:27.435Z,70.30
2019-01-02T12:29:31.021Z,70.50
2019-01-02T12:39:34.605Z,70.90
2019-01-02T12:49:38.186Z,69.20
2019-01-02T12:59:41.754Z,67.00
2019-01-02T13:10:16.983Z,68.30
2019-01-02T13:20:56.077Z,66.10
2019-01-02T13:31:21.840Z,65.50
2019-01-02T13:41:42.778Z,64.00
2019-01-02T13:51:51.346Z,64.70
2019-01-02T14:01:54.915Z,65.80
2019-01-02T14:11:58.476Z,65.50
2019-01-02T14:22:02.038Z,65.00
2019-01-02T14:32:05.623Z,65.80
2019-01-02T14:42:09.205Z,66.00
2019-01-02T14:52:13.602Z,66.60
2019-01-02T15:02:17.443Z,67.50
2019-01-02T15:12:21.015Z,67.40
2019-01-02T15:22:24.601Z,67.60
2019-01-02T15:32:28.331Z,67.60
2019-01-02T15:42:31.994Z,68.20
2019-01-02T15:52:35.570Z,69.20
2019-01-02T16:02:39.151Z,69.90
2019-01-02T16:12:46.653Z,70.90
2019-01-02T16:22:48.069Z,71.10
2019-01-02T16:32:51.659Z,71.50
2019-01-02T16:42:55.218Z,72.30
2019-01-02T16:53:02.110Z,72.60
2019-01-02T17:03:05.941Z,73.00
2019-01-02T17:13:09.510Z,73.00
2019-01-02T17:23:13.089Z,73.20
2019-01-02T17:33:16.900Z,73.60
2019-01-02T17:43:20.544Z,73.70
2019-01-02T17:53:24.153Z,73.50
2019-01-02T18:03:27.718Z,74.00
2019-01-02T18:13:31.286Z,74.40
2019-01-02T18:23:34.897Z,74.40
2019-01-02T18:33:38.450Z,74.40
2019-01-02T18:43:42.045Z,74.70
2019-01-02T18:53:45.619Z,74.90
2019-01-02T19:03:49.193Z,75.10
2019-01-02T19:13:52.777Z,75.30
2019-01-02T19:23:56.351Z,75.60
2019-01-02T19:33:59.938Z,75.70
2019-01-02T19:44:03.533Z,76.00
2019-01-02T19:54:07.342Z,75.90
2019-01-02T20:04:10.935Z,76.10
2019-01-02T20:14:14.753Z,76.20
2019-01-02T20:24:18.312Z,77.10
2019-01-02T20:34:21.890Z,77.10
2019-01-02T20:44:25.462Z,77.40
2019-01-02T20:54:29.070Z,77.40
2019-01-02T21:04:32.884Z,77.40
2019-01-02T21:14:36.437Z,77.90
2019-01-02T21:24:40.003Z,77.90
2019-01-02T21:34:43.632Z,77.90
2019-01-02T21:44:47.222Z,78.80
2019-01-02T21:54:50.807Z,79.20
2019-01-02T22:04:54.366Z,78.90
2019-01-02T22:14:57.938Z,79.00
2019-01-02T22:25:01.562Z,78.80
2019-01-02T22:35:05.458Z,79.20
2019-01-02T22:45:09.081Z,79.40
2019-01-02T22:55:12.703Z,79.70
2019-01-02T23:05:34.078Z,79.80
2019-01-02T23:15:55.690Z,80.00
2019-01-02T23:26:17.391Z,80.30
2019-01-02T23:36:44.538Z,80.30
2019-01-02T23:47:19.678Z,80.50
2019-01-02T23:57:41.049Z,80.60
